createdAt,value
2023-05-16T00:00:17.977Z,7.95
2023-05-16T00:05:22.986Z,8.57
2023-05-16T00:10:27.202Z,8.02
2023-05-16T00:15:30.854Z,8.70
2023-05-16T00:20:35.893Z,8.80
2023-05-16T00:25:39.573Z,8.30
2023-05-16T00:30:43.072Z,8.10
2023-05-16T00:35:48.084Z,8.93
2023-05-16T00:40:51.637Z,8.52
2023-05-16T00:45:55.173Z,9.05
2023-05-16T00:51:00.401Z,8.98
2023-05-16T00:56:04.149Z,8.60
2023-05-16T01:01:08.234Z,8.85
2023-05-16T01:06:13.892Z,9.82
2023-05-16T01:16:32.580Z,9.77
2023-05-16T01:21:49.359Z,9.55
2023-05-16T01:26:55.785Z,9.27
2023-05-16T01:31:59.659Z,8.93
2023-05-16T01:37:14.136Z,9.23
2023-05-16T01:42:22.689Z,9.57
2023-05-16T01:47:27.735Z,9.25
2023-05-16T01:52:45.601Z,8.55
2023-05-16T01:57:53.071Z,9.77
2023-05-16T02:02:56.811Z,9.88
2023-05-16T02:08:00.785Z,8.93
2023-05-16T02:13:05.874Z,10.18
2023-05-16T02:18:09.771Z,9.52
2023-05-16T02:23:13.807Z,12.13
2023-05-16T02:28:18.774Z,12.57
2023-05-16T02:33:22.346Z,13.47
2023-05-16T02:38:26.023Z,17.30
2023-05-16T02:43:31.153Z,19.02
2023-05-16T02:48:34.987Z,19.45
2023-05-16T02:53:38.654Z,22.85
2023-05-16T02:58:43.819Z,21.23
2023-05-16T03:03:47.713Z,20.52
2023-05-16T03:08:51.129Z,22.23
2023-05-16T03:13:56.525Z,22.65
2023-05-16T03:19:00.707Z,22.80
2023-05-16T03:24:04.377Z,23.23
2023-05-16T03:29:09.426Z,22.05
2023-05-16T03:34:13.264Z,23.00
2023-05-16T03:39:17.214Z,23.50
2023-05-16T03:44:22.293Z,24.73
2023-05-16T03:49:28.707Z,22.35
2023-05-16T03:54:32.421Z,22.77
2023-05-16T03:59:37.318Z,22.35
2023-05-16T04:04:40.838Z,21.40
2023-05-16T04:09:44.483Z,20.88
2023-05-16T04:14:49.478Z,20.35
2023-05-16T04:19:52.922Z,17.65
2023-05-16T04:24:57.434Z,17.33
2023-05-16T04:30:02.519Z,17.88
2023-05-16T04:35:06.493Z,20.50
2023-05-16T04:40:11.544Z,18.83
2023-05-16T04:45:20.338Z,18.35
2023-05-16T04:50:24.004Z,19.27
2023-05-16T04:55:27.931Z,18.90
2023-05-16T05:00:32.830Z,16.60
2023-05-16T05:05:36.225Z,17.47
2023-05-16T05:10:39.820Z,15.27
2023-05-16T05:15:44.727Z,13.20
2023-05-16T05:20:48.320Z,12.67
2023-05-16T05:25:52.238Z,11.40
2023-05-16T05:30:57.247Z,11.73
2023-05-16T05:36:03.903Z,9.98
2023-05-16T05:41:08.261Z,8.15
2023-05-16T05:46:13.329Z,8.38
2023-05-16T05:51:18.164Z,6.80
2023-05-16T05:56:22.338Z,6.53
2023-05-16T06:01:27.679Z,5.75
2023-05-16T06:06:31.587Z,4.60
2023-05-16T06:11:35.334Z,4.57
2023-05-16T06:16:40.935Z,4.60
2023-05-16T06:21:45.975Z,5.47
2023-05-16T06:26:50.689Z,4.88
2023-05-16T06:31:55.866Z,3.80
2023-05-16T06:37:00.101Z,3.88
2023-05-16T06:42:03.794Z,4.03
2023-05-16T06:52:13.817Z,3.78
2023-05-16T06:57:17.569Z,4.03
2023-05-16T07:02:22.349Z,3.95
2023-05-16T07:07:25.934Z,4.60
2023-05-16T07:12:29.376Z,4.20
2023-05-16T07:17:34.378Z,3.83
2023-05-16T07:22:37.949Z,3.58
2023-05-16T07:27:45.059Z,3.63
2023-05-16T07:32:50.823Z,4.15
2023-05-16T07:42:59.790Z,3.63
2023-05-16T07:53:08.421Z,3.55
2023-05-16T07:58:12.133Z,3.88
2023-05-16T08:03:17.249Z,3.67
2023-05-16T08:08:22.336Z,2.97
2023-05-16T08:13:26.209Z,2.88
2023-05-16T08:18:31.228Z,2.58
2023-05-16T08:23:34.900Z,3.10
2023-05-16T08:28:38.506Z,2.45
2023-05-16T08:33:43.595Z,2.20
2023-05-16T08:38:47.211Z,2.08
2023-05-16T08:43:50.962Z,1.50
2023-05-16T08:49:00.109Z,2.45
2023-05-16T08:54:05.991Z,2.42
2023-05-16T08:59:11.508Z,1.70
2023-05-16T09:09:21.230Z,1.25
2023-05-16T09:14:24.529Z,1.73
2023-05-16T09:19:34.339Z,1.75
2023-05-16T09:24:40.784Z,1.48
2023-05-16T09:29:45.357Z,1.77
2023-05-16T09:34:53.005Z,1.85
2023-05-16T09:39:56.805Z,2.00
2023-05-16T09:45:02.880Z,1.70
2023-05-16T09:50:09.277Z,2.03
2023-05-16T09:55:15.317Z,1.40
2023-05-16T10:00:20.103Z,1.88
2023-05-16T10:05:25.935Z,1.30
2023-05-16T10:10:29.798Z,1.45
2023-05-16T10:15:34.026Z,1.30
2023-05-16T10:20:39.970Z,1.35
2023-05-16T10:25:45.097Z,1.52
2023-05-16T10:30:49.286Z,1.20
2023-05-16T10:35:55.026Z,1.98
2023-05-16T10:40:58.772Z,1.65
2023-05-16T10:46:06.126Z,1.88
2023-05-16T10:51:39.259Z,2.15
2023-05-16T10:56:43.753Z,2.38
2023-05-16T11:01:54.889Z,2.47
2023-05-16T11:07:00.702Z,2.33
2023-05-16T11:12:04.453Z,1.85
2023-05-16T11:17:12.831Z,2.13
2023-05-16T11:22:28.307Z,2.45
2023-05-16T11:27:33.230Z,1.75
2023-05-16T11:32:38.628Z,1.80
2023-05-16T11:42:49.164Z,2.33
2023-05-16T11:47:52.562Z,2.20
2023-05-16T11:52:57.973Z,2.63
2023-05-16T11:58:02.410Z,2.17
2023-05-16T12:03:06.917Z,1.77
2023-05-16T12:08:13.079Z,2.10
2023-05-16T12:13:19.364Z,1.40
2023-05-16T12:18:26.434Z,1.88
2023-05-16T12:23:32.141Z,2.45
2023-05-16T12:28:39.707Z,2.00
2023-05-16T12:33:43.475Z,2.42
2023-05-16T12:38:49.584Z,1.70
2023-05-16T12:43:53.275Z,2.20
2023-05-16T12:49:05.583Z,1.50
2023-05-16T12:54:12.596Z,1.35
2023-05-16T12:59:17.163Z,1.65
2023-05-16T13:04:20.836Z,1.30
2023-05-16T13:09:29.073Z,1.80
2023-05-16T13:14:35.580Z,2.05
2023-05-16T13:19:39.182Z,1.52
2023-05-16T13:24:44.154Z,1.50
2023-05-16T13:29:48.054Z,1.55
2023-05-16T13:34:51.618Z,1.55
2023-05-16T13:39:56.727Z,1.38
2023-05-16T13:45:00.065Z,1.95
2023-05-16T13:50:06.628Z,1.63
2023-05-16T13:55:11.872Z,2.00
2023-05-16T14:05:23.147Z,1.15
2023-05-16T14:10:28.401Z,1.38
2023-05-16T14:15:32.219Z,1.27
2023-05-16T14:20:35.861Z,2.63
2023-05-16T14:25:40.437Z,1.23
2023-05-16T14:30:44.966Z,1.27
2023-05-16T14:35:50.283Z,1.10
2023-05-16T14:40:54.900Z,1.38
2023-05-16T14:45:58.332Z,0.87
2023-05-16T14:51:01.683Z,1.23
2023-05-16T14:56:06.751Z,0.90
2023-05-16T15:01:10.125Z,1.33
2023-05-16T15:06:13.600Z,1.00
2023-05-16T15:11:18.278Z,1.38
2023-05-16T15:16:21.914Z,1.10
2023-05-16T15:21:25.683Z,1.10
2023-05-16T15:26:31.032Z,0.85
2023-05-16T15:31:35.049Z,1.40
2023-05-16T15:36:38.832Z,1.70
2023-05-16T15:42:08.444Z,0.73
2023-05-16T15:47:08.451Z,0.67
2023-05-16T15:52:12.129Z,0.90
2023-05-16T15:57:16.823Z,1.20
2023-05-16T16:02:20.088Z,0.80
2023-05-16T16:07:23.362Z,1.30
2023-05-16T16:12:31.460Z,0.70
2023-05-16T16:17:35.369Z,0.90
2023-05-16T16:22:38.709Z,0.90
2023-05-16T16:27:43.973Z,0.88
2023-05-16T16:32:48.975Z,0.85
2023-05-16T16:38:05.769Z,0.97
2023-05-16T16:43:11.905Z,1.00
2023-05-16T16:48:15.570Z,1.35
2023-05-16T16:53:19.212Z,0.90
2023-05-16T16:58:24.257Z,0.90
2023-05-16T17:03:27.898Z,1.13
2023-05-16T17:08:31.780Z,1.10
2023-05-16T17:13:37.978Z,0.75
2023-05-16T17:18:43.235Z,0.73
2023-05-16T17:28:52.341Z,0.90
2023-05-16T17:33:55.694Z,0.90
2023-05-16T17:38:59.634Z,0.90
2023-05-16T17:44:06.791Z,0.82
2023-05-16T17:49:10.688Z,1.15
2023-05-16T17:54:13.952Z,0.90
2023-05-16T17:59:19.120Z,0.65
2023-05-16T18:04:23.815Z,1.35
2023-05-16T18:09:27.518Z,0.90
2023-05-16T18:14:33.056Z,0.80
2023-05-16T18:19:37.511Z,1.00
2023-05-16T18:24:41.346Z,0.68
2023-05-16T18:29:46.524Z,0.88
2023-05-16T18:34:50.316Z,0.90
2023-05-16T18:39:53.950Z,1.02
2023-05-16T18:44:58.607Z,0.98
2023-05-16T18:50:02.713Z,0.93
2023-05-16T18:55:06.727Z,0.90
2023-05-16T19:00:12.776Z,0.70
2023-05-16T19:05:16.323Z,0.80
2023-05-16T19:10:28.642Z,1.00
2023-05-16T19:15:34.267Z,0.82
2023-05-16T19:20:37.925Z,1.00
2023-05-16T19:25:47.721Z,1.13
2023-05-16T19:30:52.754Z,0.98
2023-05-16T19:35:57.698Z,1.10
2023-05-16T19:41:01.162Z,0.60
2023-05-16T19:46:05.927Z,0.80
2023-05-16T19:51:09.876Z,1.00
2023-05-16T19:56:13.294Z,0.95
2023-05-16T20:01:20.317Z,0.77
2023-05-16T20:06:23.645Z,0.88
2023-05-16T20:11:27.078Z,1.02
2023-05-16T20:16:32.202Z,1.10
2023-05-16T20:21:35.987Z,0.90
2023-05-16T20:26:39.827Z,1.00
2023-05-16T20:31:44.914Z,0.77
2023-05-16T20:36:48.556Z,1.25
2023-05-16T20:41:52.309Z,0.75
2023-05-16T20:46:57.454Z,1.15
2023-05-16T20:52:01.089Z,1.48
2023-05-16T20:57:04.871Z,0.80
2023-05-16T21:02:11.229Z,1.73
2023-05-16T21:07:14.899Z,0.82
2023-05-16T21:12:18.488Z,0.50
2023-05-16T21:17:23.439Z,0.88
2023-05-16T21:22:27.092Z,1.20
2023-05-16T21:27:30.372Z,1.38
2023-05-16T21:32:35.002Z,1.05
2023-05-16T21:37:38.311Z,0.87
2023-05-16T21:42:41.649Z,1.23
2023-05-16T21:47:46.672Z,1.10
2023-05-16T21:52:49.989Z,1.10
2023-05-16T21:57:53.201Z,0.75
2023-05-16T22:02:57.966Z,1.77
2023-05-16T22:08:01.267Z,1.13
2023-05-16T22:13:04.555Z,0.70
2023-05-16T22:18:09.375Z,0.95
2023-05-16T22:23:12.607Z,1.00
2023-05-16T22:28:15.833Z,0.88
2023-05-16T22:33:22.688Z,1.02
2023-05-16T22:38:26.078Z,0.90
2023-05-16T22:43:29.613Z,1.00
2023-05-16T22:48:34.308Z,1.50
2023-05-16T22:53:37.520Z,1.47
2023-05-16T22:58:40.751Z,1.40
2023-05-16T23:03:45.504Z,1.17
2023-05-16T23:08:49.286Z,1.23
2023-05-16T23:13:52.785Z,1.42
2023-05-16T23:18:57.939Z,1.15
2023-05-16T23:24:01.282Z,1.03
2023-05-16T23:29:04.500Z,1.25
2023-05-16T23:34:09.968Z,1.33
2023-05-16T23:39:13.717Z,1.20
2023-05-16T23:44:17.045Z,1.00
2023-05-16T23:49:22.036Z,1.10
2023-05-16T23:54:25.938Z,1.35
2023-05-16T23:59:29.746Z,1.45
